Terminal Aerodrome Forecast
Issued by NWS

Home | Current Version | Previous Version | Text Only | Print | Product List | Glossary On
Versions: 1 2 3 4 5 6 7 8 9 10 11 12 13
000
FTUS45 KABQ 141139
TAFAEG
TAF
KAEG 141139Z 1412/1512 34008KT P6SM SCT120
     FM141300 03011KT P6SM BKN080
     FM141600 10012G18KT P6SM BKN080
     FM142100 08008KT P6SM BKN100
     FM150300 34006KT P6SM FEW120=

USA.gov is the U.S. government's official web portal to all federal, state and local government web resources and services.